Strona główna
METAR-TAF:

METAR-TAF

Lotnisko :

Plymouth, New Hampshire, Stany Zjednoczone

Szerokość geograficzna: 43-46-45N, Długość geograficzna: 071-45-13W, wysokość: 154 m

Aktualna obserwacja pogody

Raport powstał 23 minut temu, godzina 15:15 UTC
Cisza
Temperatura 8°C
Wilgotność 31%
Ciśnienie 1021 hPa
Widzialność: 16.1 km
bezchmurnie

METAR: K1P1 281515Z AUTO 00000KT 10SM CLR 08/M08 A3016 RMK AO2 T00781081

czas: 11:38 (15:38 UTC)


TAF: brakujący

Obserwacja i prognoza pogody dla ponad 4000 lotnisk (raport METAR i TAF).

Dostępne stacje oznaczono żółtymi i czerwonymi punktami na mapie.

Najedź kursorem aby zobaczyć nazwę stacji.

Kliknij aby zobaczyć obserwacje i prognozy pogody.

Aby zmienić mapę: kliknij na zielony przycisk z czarnym krzyżykiem, aby powiększyć; na zielony przycisk z myślnikiem, aby pomniejszyć; na zielone strzałki, aby przejść do map sąsiednich.


METAR-TAF: